sensor_id;sensor_type;location;lat;lon;timestamp;pressure;altitude;pressure_sealevel;temperature;humidity
6216;BME280;3141;49.234;9.326;2023-05-29T00:00:05;99737.97;;;16.03;67.68
6216;BME280;3141;49.234;9.326;2023-05-29T00:01:09;99738.53;;;15.99;67.92
6216;BME280;3141;49.234;9.326;2023-05-29T00:02:11;99733.66;;;16.02;67.51
6216;BME280;3141;49.234;9.326;2023-05-29T00:03:12;99732.75;;;15.95;68.09
6216;BME280;3141;49.234;9.326;2023-05-29T00:04:13;99734.59;;;15.95;68.28
6216;BME280;3141;49.234;9.326;2023-05-29T00:05:14;99730.28;;;15.94;68.44
6216;BME280;3141;49.234;9.326;2023-05-29T00:06:17;99734.78;;;15.93;68.63
6216;BME280;3141;49.234;9.326;2023-05-29T00:07:19;99730.94;;;15.96;68.31
6216;BME280;3141;49.234;9.326;2023-05-29T00:08:20;99722.47;;;15.92;68.39
6216;BME280;3141;49.234;9.326;2023-05-29T00:09:21;99732.44;;;16.05;67.64
6216;BME280;3141;49.234;9.326;2023-05-29T00:10:23;99727.09;;;16.05;67.54
6216;BME280;3141;49.234;9.326;2023-05-29T00:11:24;99735.94;;;16.05;67.58
6216;BME280;3141;49.234;9.326;2023-05-29T00:12:25;99731.25;;;16.07;67.33
6216;BME280;3141;49.234;9.326;2023-05-29T00:13:26;99736.38;;;16.09;67.02
6216;BME280;3141;49.234;9.326;2023-05-29T00:14:27;99733.13;;;16.13;66.98
6216;BME280;3141;49.234;9.326;2023-05-29T00:15:28;99738.59;;;16.05;67.19
6216;BME280;3141;49.234;9.326;2023-05-29T00:16:30;99738.59;;;16.05;67.27
6216;BME280;3141;49.234;9.326;2023-05-29T00:17:32;99736.06;;;15.97;67.63
6216;BME280;3141;49.234;9.326;2023-05-29T00:18:33;99735.91;;;15.84;68.50
6216;BME280;3141;49.234;9.326;2023-05-29T00:19:35;99735.34;;;15.89;67.95
6216;BME280;3141;49.234;9.326;2023-05-29T00:20:36;99731.72;;;15.75;68.71
6216;BME280;3141;49.234;9.326;2023-05-29T00:21:39;99741.94;;;15.72;68.60
6216;BME280;3141;49.234;9.326;2023-05-29T00:22:40;99735.88;;;15.63;68.75
6216;BME280;3141;49.234;9.326;2023-05-29T00:23:42;99735.88;;;15.63;68.86
6216;BME280;3141;49.234;9.326;2023-05-29T00:24:43;99731.47;;;15.56;69.46
6216;BME280;3141;49.234;9.326;2023-05-29T00:25:44;99729.06;;;15.61;69.05
6216;BME280;3141;49.234;9.326;2023-05-29T00:26:45;99729.53;;;15.64;69.00
6216;BME280;3141;49.234;9.326;2023-05-29T00:27:46;99732.84;;;15.66;68.83
6216;BME280;3141;49.234;9.326;2023-05-29T00:28:47;99728.03;;;15.62;68.76
6216;BME280;3141;49.234;9.326;2023-05-29T00:29:48;99730.09;;;15.60;69.42
6216;BME280;3141;49.234;9.326;2023-05-29T00:30:50;99732.31;;;15.56;69.75
6216;BME280;3141;49.234;9.326;2023-05-29T00:31:51;99734.72;;;15.51;69.77
6216;BME280;3141;49.234;9.326;2023-05-29T00:32:53;99729.00;;;15.54;69.34
6216;BME280;3141;49.234;9.326;2023-05-29T00:33:55;99724.03;;;15.51;69.74
6216;BME280;3141;49.234;9.326;2023-05-29T00:34:56;99735.03;;;15.63;69.14
6216;BME280;3141;49.234;9.326;2023-05-29T00:35:57;99725.69;;;15.67;68.36
6216;BME280;3141;49.234;9.326;2023-05-29T00:36:58;99732.53;;;15.76;67.86
6216;BME280;3141;49.234;9.326;2023-05-29T00:37:59;99732.91;;;15.73;68.26
6216;BME280;3141;49.234;9.326;2023-05-29T00:39:00;99718.09;;;15.70;68.33
6216;BME280;3141;49.234;9.326;2023-05-29T00:40:01;99718.47;;;15.67;68.02
6216;BME280;3141;49.234;9.326;2023-05-29T00:41:04;99722.56;;;15.63;68.58
6216;BME280;3141;49.234;9.326;2023-05-29T00:42:06;99715.03;;;15.52;69.09
6216;BME280;3141;49.234;9.326;2023-05-29T00:43:07;99719.06;;;15.48;69.26
6216;BME280;3141;49.234;9.326;2023-05-29T00:44:08;99714.13;;;15.45;69.05
6216;BME280;3141;49.234;9.326;2023-05-29T00:45:10;99711.72;;;15.50;68.96
6216;BME280;3141;49.234;9.326;2023-05-29T00:46:13;99716.84;;;15.52;69.02
6216;BME280;3141;49.234;9.326;2023-05-29T00:47:15;99709.97;;;15.57;68.49
6216;BME280;3141;49.234;9.326;2023-05-29T00:48:16;99711.06;;;15.63;68.12
6216;BME280;3141;49.234;9.326;2023-05-29T00:49:19;99710.03;;;15.64;68.30
6216;BME280;3141;49.234;9.326;2023-05-29T00:50:21;99706.19;;;15.52;68.92
6216;BME280;3141;49.234;9.326;2023-05-29T00:51:22;99717.16;;;15.42;69.02
6216;BME280;3141;49.234;9.326;2023-05-29T00:52:24;99713.19;;;15.38;68.98
6216;BME280;3141;49.234;9.326;2023-05-29T00:53:27;99712.25;;;15.31;68.90
6216;BME280;3141;49.234;9.326;2023-05-29T00:54:29;99698.22;;;15.37;68.44
6216;BME280;3141;49.234;9.326;2023-05-29T00:55:31;99704.53;;;15.36;68.01
6216;BME280;3141;49.234;9.326;2023-05-29T00:56:36;99705.94;;;15.47;67.44
6216;BME280;3141;49.234;9.326;2023-05-29T00:57:37;99712.75;;;15.49;67.19
6216;BME280;3141;49.234;9.326;2023-05-29T00:58:40;99713.66;;;15.42;67.41
6216;BME280;3141;49.234;9.326;2023-05-29T00:59:43;99709.16;;;15.42;67.10
6216;BME280;3141;49.234;9.326;2023-05-29T01:00:45;99703.84;;;15.42;66.99
6216;BME280;3141;49.234;9.326;2023-05-29T01:01:48;99713.38;;;15.37;67.44
6216;BME280;3141;49.234;9.326;2023-05-29T01:02:51;99713.94;;;15.32;67.44
6216;BME280;3141;49.234;9.326;2023-05-29T01:03:56;99711.81;;;15.28;67.46
6216;BME280;3141;49.234;9.326;2023-05-29T01:04:59;99716.31;;;15.27;67.48
6216;BME280;3141;49.234;9.326;2023-05-29T01:06:00;99715.31;;;15.28;67.55
6216;BME280;3141;49.234;9.326;2023-05-29T01:07:02;99712.25;;;15.31;67.35
6216;BME280;3141;49.234;9.326;2023-05-29T01:08:03;99713.09;;;15.32;67.45
6216;BME280;3141;49.234;9.326;2023-05-29T01:09:04;99713.09;;;15.32;67.13
6216;BME280;3141;49.234;9.326;2023-05-29T01:10:06;99711.06;;;15.34;67.49
6216;BME280;3141;49.234;9.326;2023-05-29T01:11:26;99717.84;;;15.36;67.34
6216;BME280;3141;49.234;9.326;2023-05-29T01:13:31;99710.50;;;15.38;67.64
6216;BME280;3141;49.234;9.326;2023-05-29T01:14:48;99715.56;;;15.33;67.71
6216;BME280;3141;49.234;9.326;2023-05-29T01:15:58;99708.59;;;15.32;67.55
6216;BME280;3141;49.234;9.326;2023-05-29T01:17:12;99710.16;;;15.27;67.99
6216;BME280;3141;49.234;9.326;2023-05-29T01:21:27;99709.63;;;15.17;68.47
6216;BME280;3141;49.234;9.326;2023-05-29T01:22:50;99707.16;;;15.15;68.96
6216;BME280;3141;49.234;9.326;2023-05-29T01:25:22;99712.38;;;15.23;68.07
6216;BME280;3141;49.234;9.326;2023-05-29T01:26:41;99711.06;;;15.19;68.47
6216;BME280;3141;49.234;9.326;2023-05-29T01:27:46;99716.66;;;15.24;67.86
6216;BME280;3141;49.234;9.326;2023-05-29T01:28:48;99713.94;;;15.18;67.95
6216;BME280;3141;49.234;9.326;2023-05-29T01:29:55;99711.63;;;15.15;67.96
6216;BME280;3141;49.234;9.326;2023-05-29T01:30:57;99705.66;;;15.13;68.14
6216;BME280;3141;49.234;9.326;2023-05-29T01:31:58;99713.09;;;15.17;67.89
6216;BME280;3141;49.234;9.326;2023-05-29T01:32:59;99709.81;;;15.15;68.06
6216;BME280;3141;49.234;9.326;2023-05-29T01:34:01;99707.03;;;15.08;68.24
6216;BME280;3141;49.234;9.326;2023-05-29T01:35:02;99702.00;;;14.99;68.63
6216;BME280;3141;49.234;9.326;2023-05-29T01:36:03;99705.03;;;14.96;68.84
6216;BME280;3141;49.234;9.326;2023-05-29T01:37:04;99705.31;;;15.01;68.60
6216;BME280;3141;49.234;9.326;2023-05-29T01:38:05;99711.25;;;15.03;68.58
6216;BME280;3141;49.234;9.326;2023-05-29T01:39:06;99702.00;;;14.99;68.79
6216;BME280;3141;49.234;9.326;2023-05-29T01:40:08;99704.47;;;15.00;68.48
6216;BME280;3141;49.234;9.326;2023-05-29T01:41:10;99705.31;;;15.01;68.43
6216;BME280;3141;49.234;9.326;2023-05-29T01:42:11;99707.31;;;14.99;68.44
6216;BME280;3141;49.234;9.326;2023-05-29T01:43:13;99700.97;;;15.00;68.18
6216;BME280;3141;49.234;9.326;2023-05-29T01:44:15;99704.75;;;15.05;67.98
6216;BME280;3141;49.234;9.326;2023-05-29T01:45:17;99708.97;;;15.15;67.55
6216;BME280;3141;49.234;9.326;2023-05-29T01:46:19;99710.16;;;15.12;67.69
6216;BME280;3141;49.234;9.326;2023-05-29T01:47:21;99701.81;;;15.00;68.00
6216;BME280;3141;49.234;9.326;2023-05-29T01:48:23;99704.38;;;14.94;68.27
6216;BME280;3141;49.234;9.326;2023-05-29T01:49:25;99702.72;;;14.93;68.25
6216;BME280;3141;49.234;9.326;2023-05-29T01:50:27;99705.66;;;14.98;68.16
6216;BME280;3141;49.234;9.326;2023-05-29T01:51:29;99710.97;;;14.98;68.22
6216;BME280;3141;49.234;9.326;2023-05-29T01:52:32;99710.03;;;14.91;68.48
6216;BME280;3141;49.234;9.326;2023-05-29T01:53:33;99714.00;;;14.95;68.24
6216;BME280;3141;49.234;9.326;2023-05-29T01:54:34;99708.31;;;14.98;68.14
6216;BME280;3141;49.234;9.326;2023-05-29T01:55:35;99713.47;;;14.99;68.15
6216;BME280;3141;49.234;9.326;2023-05-29T01:56:36;99710.16;;;14.97;68.10
6216;BME280;3141;49.234;9.326;2023-05-29T01:57:38;99705.13;;;15.02;67.72
6216;BME280;3141;49.234;9.326;2023-05-29T01:58:39;99707.31;;;14.99;68.04
6216;BME280;3141;49.234;9.326;2023-05-29T01:59:41;99700.78;;;15.01;67.83
6216;BME280;3141;49.234;9.326;2023-05-29T02:00:42;99703.16;;;14.96;68.17
6216;BME280;3141;49.234;9.326;2023-05-29T02:01:43;99704.38;;;14.94;68.23
6216;BME280;3141;49.234;9.326;2023-05-29T02:02:44;99702.91;;;14.91;68.41
6216;BME280;3141;49.234;9.326;2023-05-29T02:03:45;99698.22;;;14.93;68.50
6216;BME280;3141;49.234;9.326;2023-05-29T02:04:46;99701.34;;;14.97;68.19
6216;BME280;3141;49.234;9.326;2023-05-29T02:05:47;99703.53;;;14.93;68.39
6216;BME280;3141;49.234;9.326;2023-05-29T02:06:48;99701.25;;;14.90;68.57
6216;BME280;3141;49.234;9.326;2023-05-29T02:07:49;99702.25;;;14.89;68.70
6216;BME280;3141;49.234;9.326;2023-05-29T02:08:50;99703.09;;;14.90;68.44
6216;BME280;3141;49.234;9.326;2023-05-29T02:09:51;99697.75;;;14.90;68.68
6216;BME280;3141;49.234;9.326;2023-05-29T02:10:52;99697.75;;;14.90;68.54
6216;BME280;3141;49.234;9.326;2023-05-29T02:11:54;99708.78;;;14.87;68.54
6216;BME280;3141;49.234;9.326;2023-05-29T02:12:55;99697.31;;;14.86;68.83
6216;BME280;3141;49.234;9.326;2023-05-29T02:13:57;99691.50;;;14.83;69.07
6216;BME280;3141;49.234;9.326;2023-05-29T02:14:59;99690.34;;;14.85;69.26
6216;BME280;3141;49.234;9.326;2023-05-29T02:15:59;99693.66;;;14.87;69.05
6216;BME280;3141;49.234;9.326;2023-05-29T02:17:00;99689.50;;;14.85;68.83
6216;BME280;3141;49.234;9.326;2023-05-29T02:18:02;99689.50;;;14.85;68.66
6216;BME280;3141;49.234;9.326;2023-05-29T02:19:03;99686.75;;;14.93;68.26
6216;BME280;3141;49.234;9.326;2023-05-29T02:20:05;99692.91;;;14.93;67.73
6216;BME280;3141;49.234;9.326;2023-05-29T02:21:07;99685.47;;;14.89;68.03
6216;BME280;3141;49.234;9.326;2023-05-29T02:22:08;99691.06;;;14.94;67.66
6216;BME280;3141;49.234;9.326;2023-05-29T02:23:09;99689.78;;;14.90;67.45
6216;BME280;3141;49.234;9.326;2023-05-29T02:24:10;99691.13;;;14.86;67.80
6216;BME280;3141;49.234;9.326;2023-05-29T02:25:11;99686.66;;;14.86;67.81
6216;BME280;3141;49.234;9.326;2023-05-29T02:26:12;99687.69;;;14.85;67.65
6216;BME280;3141;49.234;9.326;2023-05-29T02:27:14;99686.38;;;14.81;67.65
6216;BME280;3141;49.234;9.326;2023-05-29T02:28:15;99688.94;;;14.75;67.99
6216;BME280;3141;49.234;9.326;2023-05-29T02:29:16;99694.63;;;14.72;67.96
6216;BME280;3141;49.234;9.326;2023-05-29T02:30:17;99690.69;;;14.68;68.01
6216;BME280;3141;49.234;9.326;2023-05-29T02:31:18;99685.78;;;14.57;68.79
6216;BME280;3141;49.234;9.326;2023-05-29T02:32:19;99684.63;;;14.59;68.43
6216;BME280;3141;49.234;9.326;2023-05-29T02:33:20;99697.91;;;14.59;68.60
6216;BME280;3141;49.234;9.326;2023-05-29T02:34:22;99690.63;;;14.53;69.03
6216;BME280;3141;49.234;9.326;2023-05-29T02:35:23;99689.19;;;14.51;69.34
6216;BME280;3141;49.234;9.326;2023-05-29T02:36:24;99694.69;;;14.49;69.39
6216;BME280;3141;49.234;9.326;2023-05-29T02:37:26;99695.50;;;14.50;69.67
6216;BME280;3141;49.234;9.326;2023-05-29T02:38:27;99698.63;;;14.53;69.50
6216;BME280;3141;49.234;9.326;2023-05-29T02:39:28;99697.97;;;14.51;69.58
6216;BME280;3141;49.234;9.326;2023-05-29T02:40:29;99696.44;;;14.57;69.31
6216;BME280;3141;49.234;9.326;2023-05-29T02:41:30;99703.59;;;14.56;69.23
6216;BME280;3141;49.234;9.326;2023-05-29T02:42:31;99694.41;;;14.59;69.22
6216;BME280;3141;49.234;9.326;2023-05-29T02:43:33;99700.75;;;14.58;69.39
6216;BME280;3141;49.234;9.326;2023-05-29T02:44:33;99693.78;;;14.57;69.33
6216;BME280;3141;49.234;9.326;2023-05-29T02:45:34;99696.44;;;14.57;69.27
6216;BME280;3141;49.234;9.326;2023-05-29T02:46:36;99697.72;;;14.61;68.83
6216;BME280;3141;49.234;9.326;2023-05-29T02:47:37;99699.38;;;14.62;68.22
6216;BME280;3141;49.234;9.326;2023-05-29T02:48:38;99694.59;;;14.57;68.08
6216;BME280;3141;49.234;9.326;2023-05-29T02:49:39;99700.09;;;14.56;68.10
6216;BME280;3141;49.234;9.326;2023-05-29T02:50:40;99695.97;;;14.53;68.18
6216;BME280;3141;49.234;9.326;2023-05-29T02:51:41;99694.56;;;14.43;68.38
6216;BME280;3141;49.234;9.326;2023-05-29T02:52:42;99693.81;;;14.34;68.71
6216;BME280;3141;49.234;9.326;2023-05-29T02:53:43;99690.44;;;14.40;68.42
6216;BME280;3141;49.234;9.326;2023-05-29T02:54:44;99697.75;;;14.38;68.27
6216;BME280;3141;49.234;9.326;2023-05-29T02:55:45;99703.97;;;14.31;68.90
6216;BME280;3141;49.234;9.326;2023-05-29T02:56:46;99692.72;;;14.29;68.86
6216;BME280;3141;49.234;9.326;2023-05-29T02:57:47;99691.03;;;14.28;68.55
6216;BME280;3141;49.234;9.326;2023-05-29T02:58:50;99694.72;;;14.27;68.65
6216;BME280;3141;49.234;9.326;2023-05-29T02:59:51;99692.84;;;14.27;68.47
6216;BME280;3141;49.234;9.326;2023-05-29T03:00:52;99690.06;;;14.29;68.42
6216;BME280;3141;49.234;9.326;2023-05-29T03:01:53;99688.66;;;14.33;68.27
6216;BME280;3141;49.234;9.326;2023-05-29T03:02:55;99685.34;;;14.31;68.01
6216;BME280;3141;49.234;9.326;2023-05-29T03:03:56;99687.31;;;14.37;67.73
6216;BME280;3141;49.234;9.326;2023-05-29T03:04:57;99682.97;;;14.36;67.69
6216;BME280;3141;49.234;9.326;2023-05-29T03:05:58;99692.63;;;14.37;67.65
6216;BME280;3141;49.234;9.326;2023-05-29T03:06:59;99697.66;;;14.32;67.42
6216;BME280;3141;49.234;9.326;2023-05-29T03:08:00;99690.19;;;14.27;67.48
6216;BME280;3141;49.234;9.326;2023-05-29T03:09:02;99694.72;;;14.19;67.71
6216;BME280;3141;49.234;9.326;2023-05-29T03:10:03;99700.22;;;14.17;67.87
6216;BME280;3141;49.234;9.326;2023-05-29T03:11:04;99701.44;;;14.15;67.85
6216;BME280;3141;49.234;9.326;2023-05-29T03:12:06;99698.94;;;14.13;67.89
6216;BME280;3141;49.234;9.326;2023-05-29T03:13:07;99700.59;;;14.14;67.78
6216;BME280;3141;49.234;9.326;2023-05-29T03:14:08;99701.06;;;14.18;67.74
6216;BME280;3141;49.234;9.326;2023-05-29T03:15:09;99705.53;;;14.17;67.38
6216;BME280;3141;49.234;9.326;2023-05-29T03:16:10;99704.28;;;14.13;67.61
6216;BME280;3141;49.234;9.326;2023-05-29T03:17:11;99700.78;;;14.13;67.57
6216;BME280;3141;49.234;9.326;2023-05-29T03:18:13;99704.28;;;14.13;67.51
6216;BME280;3141;49.234;9.326;2023-05-29T03:19:14;99696.16;;;14.07;68.73
6216;BME280;3141;49.234;9.326;2023-05-29T03:20:15;99698.00;;;14.06;68.47
6216;BME280;3141;49.234;9.326;2023-05-29T03:21:16;99698.19;;;14.05;68.94
6216;BME280;3141;49.234;9.326;2023-05-29T03:22:18;99702.47;;;14.06;68.92
6216;BME280;3141;49.234;9.326;2023-05-29T03:23:19;99698.19;;;14.05;69.05
6216;BME280;3141;49.234;9.326;2023-05-29T03:24:21;99696.16;;;14.07;69.05
6216;BME280;3141;49.234;9.326;2023-05-29T03:25:22;99697.81;;;14.08;68.72
6216;BME280;3141;49.234;9.326;2023-05-29T03:26:23;99696.34;;;14.05;68.67
6216;BME280;3141;49.234;9.326;2023-05-29T03:27:24;99698.81;;;14.07;68.39
6216;BME280;3141;49.234;9.326;2023-05-29T03:28:25;99700.47;;;14.08;68.18
6216;BME280;3141;49.234;9.326;2023-05-29T03:29:26;99695.97;;;14.08;68.17
6216;BME280;3141;49.234;9.326;2023-05-29T03:30:27;99697.84;;;14.00;68.48
6216;BME280;3141;49.234;9.326;2023-05-29T03:31:28;99699.91;;;13.98;68.52
6216;BME280;3141;49.234;9.326;2023-05-29T03:32:29;99693.75;;;13.97;68.47
6216;BME280;3141;49.234;9.326;2023-05-29T03:33:30;99696.50;;;14.04;68.33
6216;BME280;3141;49.234;9.326;2023-05-29T03:34:31;99696.41;;;13.97;68.77
6216;BME280;3141;49.234;9.326;2023-05-29T03:35:33;99704.84;;;14.01;68.56
6216;BME280;3141;49.234;9.326;2023-05-29T03:36:34;99692.22;;;14.03;68.40
6216;BME280;3141;49.234;9.326;2023-05-29T03:37:37;99690.38;;;14.03;68.28
6216;BME280;3141;49.234;9.326;2023-05-29T03:38:37;99689.19;;;14.06;68.56
6216;BME280;3141;49.234;9.326;2023-05-29T03:39:38;99689.50;;;14.11;67.93
6216;BME280;3141;49.234;9.326;2023-05-29T03:40:39;99687.47;;;14.13;67.76
6216;BME280;3141;49.234;9.326;2023-05-29T03:41:40;99687.84;;;14.10;67.79
6216;BME280;3141;49.234;9.326;2023-05-29T03:42:41;99691.78;;;14.14;67.65
6216;BME280;3141;49.234;9.326;2023-05-29T03:43:42;99688.31;;;14.13;67.41
6216;BME280;3141;49.234;9.326;2023-05-29T03:44:43;99691.97;;;14.12;67.60
6216;BME280;3141;49.234;9.326;2023-05-29T03:45:44;99697.09;;;14.14;67.51
6216;BME280;3141;49.234;9.326;2023-05-29T03:46:45;99696.44;;;14.12;67.51
6216;BME280;3141;49.234;9.326;2023-05-29T03:47:46;99699.09;;;14.12;67.43
6216;BME280;3141;49.234;9.326;2023-05-29T03:48:47;99694.81;;;14.11;67.60
6216;BME280;3141;49.234;9.326;2023-05-29T03:49:48;99696.81;;;14.09;67.41
6216;BME280;3141;49.234;9.326;2023-05-29T03:50:49;99693.16;;;14.10;67.67
6216;BME280;3141;49.234;9.326;2023-05-29T03:51:50;99702.31;;;14.07;67.51
6216;BME280;3141;49.234;9.326;2023-05-29T03:52:51;99695.47;;;14.13;67.35
6216;BME280;3141;49.234;9.326;2023-05-29T03:53:52;99700.59;;;14.14;67.42
6216;BME280;3141;49.234;9.326;2023-05-29T03:54:53;99697.09;;;14.14;67.69
6216;BME280;3141;49.234;9.326;2023-05-29T03:55:54;99706.56;;;14.16;67.38
6216;BME280;3141;49.234;9.326;2023-05-29T03:56:55;99698.59;;;14.16;67.55
6216;BME280;3141;49.234;9.326;2023-05-29T03:57:56;99704.88;;;14.15;67.58
6216;BME280;3141;49.234;9.326;2023-05-29T03:58:57;99702.88;;;14.17;67.40
6216;BME280;3141;49.234;9.326;2023-05-29T03:59:58;99712.16;;;14.21;67.35
6216;BME280;3141;49.234;9.326;2023-05-29T04:00:59;99704.28;;;14.13;67.91
6216;BME280;3141;49.234;9.326;2023-05-29T04:02:00;99702.22;;;14.15;67.79
6216;BME280;3141;49.234;9.326;2023-05-29T04:03:00;99700.13;;;14.11;68.04
6216;BME280;3141;49.234;9.326;2023-05-29T04:04:01;99704.88;;;14.15;68.06
6216;BME280;3141;49.234;9.326;2023-05-29T04:05:03;99706.75;;;14.15;67.93
6216;BME280;3141;49.234;9.326;2023-05-29T04:06:04;99706.03;;;14.21;67.79
6216;BME280;3141;49.234;9.326;2023-05-29T04:07:05;99704.00;;;14.23;67.71
6216;BME280;3141;49.234;9.326;2023-05-29T04:08:07;99710.00;;;14.25;67.84
6216;BME280;3141;49.234;9.326;2023-05-29T04:09:09;99704.25;;;14.36;67.14
6216;BME280;3141;49.234;9.326;2023-05-29T04:10:10;99706.75;;;14.37;67.24
6216;BME280;3141;49.234;9.326;2023-05-29T04:11:12;99713.97;;;14.29;67.66
6216;BME280;3141;49.234;9.326;2023-05-29T04:12:14;99707.47;;;14.31;67.48
6216;BME280;3141;49.234;9.326;2023-05-29T04:13:16;99714.75;;;14.37;67.23
6216;BME280;3141;49.234;9.326;2023-05-29T04:14:17;99712.97;;;14.30;67.59
6216;BME280;3141;49.234;9.326;2023-05-29T04:15:19;99713.25;;;14.35;67.75
6216;BME280;3141;49.234;9.326;2023-05-29T04:16:20;99722.34;;;14.40;67.82
6216;BME280;3141;49.234;9.326;2023-05-29T04:17:21;99719.81;;;14.47;67.55
6216;BME280;3141;49.234;9.326;2023-05-29T04:18:22;99726.59;;;14.49;67.19
6216;BME280;3141;49.234;9.326;2023-05-29T04:19:23;99723.69;;;14.59;66.73
6216;BME280;3141;49.234;9.326;2023-05-29T04:20:24;99726.16;;;14.60;66.70
6216;BME280;3141;49.234;9.326;2023-05-29T04:21:25;99726.81;;;14.62;66.74
6216;BME280;3141;49.234;9.326;2023-05-29T04:22:26;99731.91;;;14.72;66.46
6216;BME280;3141;49.234;9.326;2023-05-29T04:23:27;99736.28;;;14.79;65.97
6216;BME280;3141;49.234;9.326;2023-05-29T04:24:28;99727.94;;;14.82;66.12
6216;BME280;3141;49.234;9.326;2023-05-29T04:25:29;99741.09;;;14.84;66.07
6216;BME280;3141;49.234;9.326;2023-05-29T04:26:30;99737.03;;;14.88;65.96
6216;BME280;3141;49.234;9.326;2023-05-29T04:27:33;99744.13;;;14.95;66.16
6216;BME280;3141;49.234;9.326;2023-05-29T04:28:38;99737.78;;;14.96;65.84
6216;BME280;3141;49.234;9.326;2023-05-29T04:29:40;99739.25;;;14.99;65.76
6216;BME280;3141;49.234;9.326;2023-05-29T04:30:43;99740.72;;;15.01;65.98
6216;BME280;3141;49.234;9.326;2023-05-29T04:31:44;99745.84;;;15.03;66.11
6216;BME280;3141;49.234;9.326;2023-05-29T04:32:45;99746.78;;;15.10;66.46
6216;BME280;3141;49.234;9.326;2023-05-29T04:33:47;99745.50;;;15.06;67.50
6216;BME280;3141;49.234;9.326;2023-05-29T04:34:49;99749.81;;;15.07;67.25
6216;BME280;3141;49.234;9.326;2023-05-29T04:35:51;99750.56;;;15.01;67.50
6216;BME280;3141;49.234;9.326;2023-05-29T04:36:53;99756.72;;;15.16;66.30
6216;BME280;3141;49.234;9.326;2023-05-29T04:37:54;99753.22;;;15.30;65.74
6216;BME280;3141;49.234;9.326;2023-05-29T04:38:57;99754.50;;;15.34;64.99
6216;BME280;3141;49.234;9.326;2023-05-29T04:39:59;99754.16;;;15.37;65.48
6216;BME280;3141;49.234;9.326;2023-05-29T04:41:00;99751.59;;;15.44;65.61
6216;BME280;3141;49.234;9.326;2023-05-29T04:42:01;99761.69;;;15.48;64.50
6216;BME280;3141;49.234;9.326;2023-05-29T04:43:02;99765.66;;;15.52;64.42
6216;BME280;3141;49.234;9.326;2023-05-29T04:44:06;99763.63;;;15.54;64.72
6216;BME280;3141;49.234;9.326;2023-05-29T04:45:07;99768.47;;;15.65;64.35
6216;BME280;3141;49.234;9.326;2023-05-29T04:46:11;99773.16;;;15.78;63.71
6216;BME280;3141;49.234;9.326;2023-05-29T04:47:13;99766.44;;;15.82;63.74
6216;BME280;3141;49.234;9.326;2023-05-29T04:48:16;99772.69;;;15.74;64.28
6216;BME280;3141;49.234;9.326;2023-05-29T04:49:17;99769.56;;;15.85;63.86
6216;BME280;3141;49.234;9.326;2023-05-29T04:50:19;99763.72;;;15.96;63.56
6216;BME280;3141;49.234;9.326;2023-05-29T04:51:20;99768.78;;;16.06;63.18
6216;BME280;3141;49.234;9.326;2023-05-29T04:52:21;99777.22;;;16.09;62.91
6216;BME280;3141;49.234;9.326;2023-05-29T04:53:23;99775.25;;;16.18;63.34
6216;BME280;3141;49.234;9.326;2023-05-29T04:54:24;99780.44;;;16.41;62.47
6216;BME280;3141;49.234;9.326;2023-05-29T04:55:25;99780.56;;;16.54;61.79
6216;BME280;3141;49.234;9.326;2023-05-29T04:56:26;99771.22;;;16.64;61.51
6216;BME280;3141;49.234;9.326;2023-05-29T04:57:27;99777.91;;;16.75;61.00
6216;BME280;3141;49.234;9.326;2023-05-29T04:58:28;99784.34;;;16.87;60.88
6216;BME280;3141;49.234;9.326;2023-05-29T04:59:29;99779.91;;;16.94;60.53
6216;BME280;3141;49.234;9.326;2023-05-29T05:00:30;99783.06;;;17.04;60.17
6216;BME280;3141;49.234;9.326;2023-05-29T05:01:31;99785.56;;;17.12;59.70
6216;BME280;3141;49.234;9.326;2023-05-29T05:02:33;99784.84;;;17.24;59.33
6216;BME280;3141;49.234;9.326;2023-05-29T05:03:35;99787.34;;;17.32;58.96
6216;BME280;3141;49.234;9.326;2023-05-29T05:04:36;99787.84;;;17.43;58.38
6216;BME280;3141;49.234;9.326;2023-05-29T05:05:37;99797.34;;;17.52;58.15
6216;BME280;3141;49.234;9.326;2023-05-29T05:06:38;99788.59;;;17.64;57.70
6216;BME280;3141;49.234;9.326;2023-05-29T05:07:40;99785.59;;;17.80;57.26
6216;BME280;3141;49.234;9.326;2023-05-29T05:08:41;99793.44;;;17.88;56.87
6216;BME280;3141;49.234;9.326;2023-05-29T05:09:42;99793.69;;;18.00;56.46
6216;BME280;3141;49.234;9.326;2023-05-29T05:10:43;99799.69;;;18.08;56.07
6216;BME280;3141;49.234;9.326;2023-05-29T05:11:44;99800.94;;;18.19;56.09
6216;BME280;3141;49.234;9.326;2023-05-29T05:12:45;99799.28;;;18.11;56.19
6216;BME280;3141;49.234;9.326;2023-05-29T05:13:46;99806.13;;;18.20;56.21
6216;BME280;3141;49.234;9.326;2023-05-29T05:14:47;99806.13;;;18.33;55.22
6216;BME280;3141;49.234;9.326;2023-05-29T05:15:48;99804.97;;;18.49;55.63
6216;BME280;3141;49.234;9.326;2023-05-29T05:16:49;99804.13;;;18.42;55.69
6216;BME280;3141;49.234;9.326;2023-05-29T05:17:50;99805.97;;;18.41;55.65
6216;BME280;3141;49.234;9.326;2023-05-29T05:18:51;99798.47;;;18.17;56.17
6216;BME280;3141;49.234;9.326;2023-05-29T05:19:52;99808.41;;;18.36;56.05
6216;BME280;3141;49.234;9.326;2023-05-29T05:20:54;99808.50;;;18.69;55.38
6216;BME280;3141;49.234;9.326;2023-05-29T05:21:55;99806.47;;;18.84;54.61
6216;BME280;3141;49.234;9.326;2023-05-29T05:22:56;99807.47;;;18.77;54.78
6216;BME280;3141;49.234;9.326;2023-05-29T05:23:58;99801.47;;;18.49;55.03
6216;BME280;3141;49.234;9.326;2023-05-29T05:24:58;99807.91;;;18.80;54.59
6216;BME280;3141;49.234;9.326;2023-05-29T05:26:01;99815.53;;;19.03;53.72
6216;BME280;3141;49.234;9.326;2023-05-29T05:27:03;99814.28;;;19.12;53.37
6216;BME280;3141;49.234;9.326;2023-05-29T05:28:05;99820.88;;;19.16;53.62
6216;BME280;3141;49.234;9.326;2023-05-29T05:29:06;99809.34;;;18.89;53.75
6216;BME280;3141;49.234;9.326;2023-05-29T05:30:07;99809.34;;;19.22;53.35
6216;BME280;3141;49.234;9.326;2023-05-29T05:31:08;99815.72;;;19.27;53.51
6216;BME280;3141;49.234;9.326;2023-05-29T05:32:09;99814.28;;;19.25;52.87
6216;BME280;3141;49.234;9.326;2023-05-29T05:33:10;99817.38;;;19.35;52.86
6216;BME280;3141;49.234;9.326;2023-05-29T05:34:11;99816.56;;;19.41;52.52
6216;BME280;3141;49.234;9.326;2023-05-29T05:35:13;99816.50;;;19.54;52.32
6216;BME280;3141;49.234;9.326;2023-05-29T05:36:14;99814.06;;;19.33;53.21
6216;BME280;3141;49.234;9.326;2023-05-29T05:37:15;99824.94;;;19.64;52.67
6216;BME280;3141;49.234;9.326;2023-05-29T05:38:16;99824.69;;;19.85;51.94
6216;BME280;3141;49.234;9.326;2023-05-29T05:39:17;99829.81;;;19.93;51.59
6216;BME280;3141;49.234;9.326;2023-05-29T05:40:18;99829.16;;;20.04;50.21
6216;BME280;3141;49.234;9.326;2023-05-29T05:41:19;99833.91;;;20.02;50.45